createdAt,value
2023-05-14T02:39:29.204Z,94619.88
2023-05-14T02:42:03.056Z,94625.00
2023-05-14T02:44:33.428Z,94623.16
2023-05-14T02:46:59.965Z,94621.13
2023-05-14T02:50:00.928Z,94627.88
2023-05-14T03:03:29.978Z,94610.22
2023-05-14T03:05:57.394Z,94603.91
2023-05-14T03:08:40.435Z,94604.53
2023-05-14T03:11:19.791Z,94602.72
2023-05-14T03:39:06.634Z,94589.25
2023-05-14T03:41:33.671Z,94588.84
2023-05-14T03:46:46.296Z,94594.53
2023-05-14T03:49:16.318Z,94600.19
2023-05-14T03:51:44.098Z,94604.28
2023-05-14T03:57:04.034Z,94606.53
2023-05-14T03:59:34.776Z,94609.19
2023-05-14T04:02:03.954Z,94607.91
2023-05-14T04:04:30.973Z,94602.81
2023-05-14T04:07:00.027Z,94603.47
2023-05-14T04:09:26.405Z,94607.13
2023-05-14T04:11:53.051Z,94603.47
2023-05-14T04:14:19.425Z,94598.81
2023-05-14T04:16:46.591Z,94598.81
2023-05-14T04:19:13.649Z,94602.06
2023-05-14T04:21:40.064Z,94599.88
2023-05-14T04:24:06.763Z,94607.25
2023-05-14T04:26:33.231Z,94606.25
2023-05-14T04:29:00.342Z,94605.88
2023-05-14T04:31:27.057Z,94607.34
2023-05-14T04:33:53.573Z,94603.50
2023-05-14T04:36:20.275Z,94600.47
2023-05-14T04:38:48.180Z,94610.63
2023-05-14T04:41:14.556Z,94611.44
2023-05-14T04:43:41.240Z,94600.88
2023-05-14T04:46:07.888Z,94611.88
2023-05-14T04:48:35.334Z,94609.22
2023-05-14T04:51:02.098Z,94622.25
2023-05-14T04:53:28.861Z,94621.28
2023-05-14T04:55:55.502Z,94619.25
2023-05-14T04:58:21.889Z,94612.31
2023-05-14T05:00:48.290Z,94618.25
2023-05-14T05:03:14.855Z,94614.59
2023-05-14T05:05:41.345Z,94619.50
2023-05-14T05:08:07.867Z,94618.50
2023-05-14T05:10:34.321Z,94612.84
2023-05-14T05:13:03.437Z,94616.09
2023-05-14T05:15:30.371Z,94615.75
2023-05-14T05:17:57.253Z,94625.75
2023-05-14T05:20:25.949Z,94624.19
2023-05-14T05:22:53.374Z,94621.34
2023-05-14T05:25:22.501Z,94622.34
2023-05-14T05:27:49.188Z,94621.97
2023-05-14T05:30:16.570Z,94620.78
2023-05-14T05:32:43.223Z,94614.75
2023-05-14T05:35:10.714Z,94619.00
2023-05-14T05:37:37.198Z,94620.91
2023-05-14T05:40:04.186Z,94625.44
2023-05-14T05:42:30.670Z,94617.31
2023-05-14T05:44:57.368Z,94617.63
2023-05-14T05:47:24.152Z,94615.22
2023-05-14T05:49:51.106Z,94619.28
2023-05-14T05:52:17.952Z,94613.59
2023-05-14T05:54:44.471Z,94616.50
2023-05-14T05:57:13.956Z,94623.72
2023-05-14T05:59:40.851Z,94625.81
2023-05-14T06:02:07.712Z,94623.59
2023-05-14T06:04:34.135Z,94620.53
2023-05-14T06:07:00.764Z,94619.66
2023-05-14T06:09:28.136Z,94619.59
2023-05-14T06:11:54.491Z,94615.03
2023-05-14T06:14:20.882Z,94619.66
2023-05-14T06:16:47.306Z,94620.41
2023-05-14T06:19:13.890Z,94618.50
2023-05-14T06:21:40.732Z,94615.56
2023-05-14T06:24:07.211Z,94618.22
2023-05-14T06:26:33.628Z,94623.19
2023-05-14T06:29:00.039Z,94626.31
2023-05-14T06:31:26.516Z,94625.16
2023-05-14T06:33:54.342Z,94626.75
2023-05-14T06:36:21.758Z,94623.44
2023-05-14T06:38:48.317Z,94623.03
2023-05-14T06:41:14.668Z,94629.19
2023-05-14T06:43:41.078Z,94626.88
2023-05-14T06:46:07.484Z,94629.47
2023-05-14T06:48:33.939Z,94626.94
2023-05-14T06:51:00.328Z,94630.28
2023-05-14T06:53:26.679Z,94630.13
2023-05-14T06:55:53.029Z,94623.63
2023-05-14T06:58:19.434Z,94626.13
2023-05-14T07:00:46.310Z,94631.06
2023-05-14T07:03:12.977Z,94640.88
2023-05-14T07:05:39.621Z,94636.81
2023-05-14T07:08:06.500Z,94636.41
2023-05-14T07:10:33.985Z,94626.63
2023-05-14T07:13:03.018Z,94629.09
2023-05-14T07:15:29.391Z,94627.69
2023-05-14T07:17:57.898Z,94623.16
2023-05-14T07:20:24.688Z,94628.34
2023-05-14T07:22:51.384Z,94630.78
2023-05-14T07:25:20.030Z,94632.84
2023-05-14T07:27:46.372Z,94630.50
2023-05-14T07:30:13.177Z,94625.03
2023-05-14T07:32:40.145Z,94635.91
2023-05-14T07:35:06.792Z,94633.41
2023-05-14T07:37:33.152Z,94622.69
2023-05-14T07:39:59.598Z,94623.25
2023-05-14T07:42:35.283Z,94627.06
2023-05-14T07:45:03.439Z,94621.25
2023-05-14T07:47:29.981Z,94612.88
2023-05-14T07:49:57.197Z,94614.81
2023-05-14T07:52:23.582Z,94615.00
2023-05-14T07:54:50.658Z,94613.75
2023-05-14T07:57:17.210Z,94604.38
2023-05-14T07:59:43.663Z,94609.72
2023-05-14T08:02:12.783Z,94608.97
2023-05-14T08:04:40.773Z,94603.19
2023-05-14T08:07:08.168Z,94609.75
2023-05-14T08:09:35.540Z,94605.31
2023-05-14T08:12:13.401Z,94611.25
2023-05-14T08:14:42.897Z,94609.03
2023-05-14T08:17:09.409Z,94604.06
2023-05-14T08:19:36.033Z,94606.47
2023-05-14T08:22:04.930Z,94604.06
2023-05-14T08:24:31.472Z,94598.59
2023-05-14T08:26:57.925Z,94606.94
2023-05-14T08:29:24.266Z,94606.94
2023-05-14T08:31:50.973Z,94605.09
2023-05-14T08:34:19.498Z,94605.66
2023-05-14T08:36:46.119Z,94606.66
2023-05-14T08:39:15.375Z,94603.88
2023-05-14T08:41:42.105Z,94598.41
2023-05-14T08:44:09.532Z,94598.41
2023-05-14T08:46:35.888Z,94601.31
2023-05-14T08:49:02.499Z,94605.72
2023-05-14T08:51:30.216Z,94596.25
2023-05-14T08:53:56.691Z,94607.31
2023-05-14T08:56:24.661Z,94605.41
2023-05-14T08:58:51.242Z,94596.53
2023-05-14T09:01:17.852Z,94596.00
2023-05-14T09:03:44.543Z,94592.38
2023-05-14T09:06:10.970Z,94588.16
2023-05-14T09:08:37.316Z,94589.53
2023-05-14T09:11:03.664Z,94591.81
2023-05-14T09:13:30.122Z,94581.97
2023-05-14T09:15:57.545Z,94583.16
2023-05-14T09:18:23.997Z,94579.75
2023-05-14T09:20:52.711Z,94582.47
2023-05-14T09:23:19.193Z,94579.47
2023-05-14T09:25:46.092Z,94585.97
2023-05-14T09:28:12.965Z,94580.63
2023-05-14T09:30:41.826Z,94582.91
2023-05-14T09:33:08.692Z,94577.22
2023-05-14T09:35:35.221Z,94579.63
2023-05-14T09:38:01.623Z,94575.72
2023-05-14T09:40:28.366Z,94574.88
2023-05-14T09:42:55.046Z,94571.25
2023-05-14T09:45:21.652Z,94575.09
2023-05-14T09:47:48.843Z,94571.44
2023-05-14T09:50:15.299Z,94575.66
2023-05-14T09:52:42.099Z,94574.47
2023-05-14T09:55:09.972Z,94576.59
2023-05-14T09:57:36.361Z,94578.53
2023-05-14T10:00:03.723Z,94572.66
2023-05-14T10:02:30.108Z,94577.56
2023-05-14T10:04:56.480Z,94576.13
2023-05-14T10:07:22.982Z,94571.16
2023-05-14T10:09:49.619Z,94563.03
2023-05-14T10:12:16.536Z,94567.81
2023-05-14T10:14:43.926Z,94566.16
2023-05-14T10:17:10.438Z,94559.28
2023-05-14T10:19:37.107Z,94560.97
2023-05-14T10:22:03.537Z,94555.94
2023-05-14T10:24:29.917Z,94546.84
2023-05-14T10:26:56.425Z,94549.78
2023-05-14T10:29:23.986Z,94554.88
2023-05-14T10:31:50.383Z,94554.16
2023-05-14T10:34:16.840Z,94554.47
2023-05-14T10:36:43.226Z,94546.06
2023-05-14T10:39:09.590Z,94546.19
2023-05-14T10:41:36.297Z,94536.00
2023-05-14T10:44:14.546Z,94535.34
2023-05-14T10:46:40.895Z,94533.84
2023-05-14T10:49:09.330Z,94546.25
2023-05-14T10:51:36.467Z,94535.25
2023-05-14T10:54:03.892Z,94537.28
2023-05-14T10:56:30.277Z,94533.72
2023-05-14T10:58:56.643Z,94533.75
2023-05-14T11:01:24.297Z,94538.06
2023-05-14T11:03:52.237Z,94534.66
2023-05-14T11:06:18.705Z,94523.41
2023-05-14T11:08:48.242Z,94525.69
2023-05-14T11:11:14.628Z,94526.06
2023-05-14T11:13:41.027Z,94521.72
2023-05-14T11:18:38.901Z,94531.16
2023-05-14T11:21:06.532Z,94534.66
2023-05-14T11:23:33.055Z,94534.25
2023-05-14T11:25:59.925Z,94528.56
2023-05-14T11:28:26.927Z,94531.81
2023-05-14T11:30:53.261Z,94529.66
2023-05-14T11:33:19.795Z,94534.66
2023-05-14T11:35:46.165Z,94529.13
2023-05-14T11:38:12.618Z,94520.69
2023-05-14T11:40:39.140Z,94524.91
2023-05-14T11:43:05.640Z,94530.34
2023-05-14T11:45:32.272Z,94529.16
2023-05-14T11:47:58.717Z,94530.34
2023-05-14T11:50:25.368Z,94532.78
2023-05-14T11:52:54.352Z,94536.59
2023-05-14T11:55:20.686Z,94534.75
2023-05-14T11:57:47.046Z,94530.78
2023-05-14T12:00:18.824Z,94529.47
2023-05-14T12:02:45.294Z,94529.31
2023-05-14T12:05:13.749Z,94523.47
2023-05-14T12:07:40.379Z,94515.38
2023-05-14T12:10:06.863Z,94509.94
2023-05-14T12:12:33.295Z,94511.38
2023-05-14T12:15:00.210Z,94518.19
2023-05-14T12:17:27.025Z,94517.91
2023-05-14T12:19:53.431Z,94513.81
2023-05-14T12:22:22.490Z,94518.75
2023-05-14T12:24:48.862Z,94515.53
2023-05-14T12:27:15.255Z,94518.69
2023-05-14T12:29:41.968Z,94519.16
2023-05-14T12:32:08.346Z,94515.22
2023-05-14T12:34:37.679Z,94504.63
2023-05-14T12:37:04.544Z,94499.50
2023-05-14T12:39:30.933Z,94498.34
2023-05-14T12:41:57.328Z,94495.06
2023-05-14T12:44:23.797Z,94504.97
2023-05-14T12:46:52.058Z,94506.81
2023-05-14T12:49:18.397Z,94492.44
2023-05-14T12:51:44.732Z,94495.69
2023-05-14T12:54:15.160Z,94484.97
2023-05-14T12:56:43.057Z,94499.03
2023-05-14T12:59:09.593Z,94487.28
2023-05-14T13:01:36.722Z,94484.41
2023-05-14T13:04:06.558Z,94489.28
2023-05-14T13:06:33.126Z,94481.25
2023-05-14T13:09:00.844Z,94485.00
2023-05-14T13:11:28.039Z,94478.81
2023-05-14T13:13:54.435Z,94484.28
2023-05-14T13:16:20.887Z,94476.72
2023-05-14T13:18:48.276Z,94477.03
2023-05-14T13:21:15.072Z,94475.78
2023-05-14T13:23:41.832Z,94480.13
2023-05-14T13:26:09.266Z,94479.94
2023-05-14T13:28:39.252Z,94481.69
2023-05-14T13:31:06.397Z,94478.91
2023-05-14T13:33:32.857Z,94472.63
2023-05-14T13:35:59.293Z,94471.53
2023-05-14T13:38:26.678Z,94475.88
2023-05-14T13:40:54.593Z,94467.97
2023-05-14T13:43:24.517Z,94473.22
2023-05-14T13:45:50.965Z,94460.22
2023-05-14T13:48:18.321Z,94456.22
2023-05-14T13:50:44.774Z,94456.13
2023-05-14T13:53:11.244Z,94452.72
2023-05-14T13:55:40.000Z,94446.44
2023-05-14T13:58:08.713Z,94455.41
2023-05-14T14:00:37.920Z,94450.47
2023-05-14T14:03:04.380Z,94444.53
2023-05-14T14:05:30.902Z,94441.91
2023-05-14T14:08:01.156Z,94447.28
2023-05-14T14:10:34.770Z,94443.16
2023-05-14T14:13:01.288Z,94448.66
2023-05-14T14:15:28.989Z,94440.56
2023-05-14T14:17:55.826Z,94438.00
2023-05-14T14:20:24.289Z,94440.81
2023-05-14T14:22:50.688Z,94443.47
2023-05-14T14:25:17.046Z,94446.38
2023-05-14T14:27:43.382Z,94446.72
2023-05-14T14:30:10.087Z,94443.44
2023-05-14T14:32:36.513Z,94440.34
2023-05-14T14:35:03.649Z,94440.78
2023-05-14T14:37:32.306Z,94438.13
2023-05-14T14:40:01.017Z,94437.31
2023-05-14T14:42:27.899Z,94441.34
2023-05-14T14:44:55.065Z,94426.31
2023-05-14T14:47:21.471Z,94423.59
2023-05-14T14:49:48.350Z,94436.75
2023-05-14T14:52:17.277Z,94440.78
2023-05-14T14:54:45.911Z,94452.66
2023-05-14T14:57:13.395Z,94452.41
2023-05-14T14:59:39.798Z,94451.19
2023-05-14T15:02:08.363Z,94454.84
2023-05-14T15:04:34.730Z,94449.00
2023-05-14T15:07:03.419Z,94443.25
2023-05-14T15:09:30.023Z,94448.69
2023-05-14T15:12:03.833Z,94453.81
2023-05-14T15:14:34.369Z,94454.72
2023-05-14T15:17:00.942Z,94444.03
2023-05-14T15:19:27.349Z,94449.38
2023-05-14T15:21:53.840Z,94450.88
2023-05-14T15:24:20.284Z,94457.50
2023-05-14T15:26:46.701Z,94458.31
2023-05-14T15:29:13.397Z,94452.28
2023-05-14T15:31:40.855Z,94446.22
2023-05-14T15:34:07.292Z,94448.78
2023-05-14T15:36:34.713Z,94451.25
2023-05-14T15:39:01.050Z,94442.38
2023-05-14T15:41:27.977Z,94440.63
2023-05-14T15:43:54.352Z,94442.50
2023-05-14T15:46:21.087Z,94444.03
2023-05-14T15:48:48.544Z,94441.09
2023-05-14T15:51:15.111Z,94427.59
2023-05-14T15:53:41.475Z,94439.13
2023-05-14T15:56:09.231Z,94435.88
2023-05-14T15:58:35.677Z,94436.09
2023-05-14T16:01:02.109Z,94434.84
2023-05-14T16:03:28.708Z,94427.97
2023-05-14T16:05:55.124Z,94433.34
2023-05-14T16:08:21.507Z,94442.06
2023-05-14T16:10:48.087Z,94444.75
2023-05-14T16:13:17.127Z,94440.66
2023-05-14T16:15:43.473Z,94445.72
2023-05-14T16:18:11.196Z,94437.88
2023-05-14T16:20:37.674Z,94450.63
2023-05-14T16:23:04.075Z,94459.47
2023-05-14T16:25:30.477Z,94469.06
2023-05-14T16:27:59.165Z,94467.97
2023-05-14T16:30:25.705Z,94475.94
2023-05-14T16:32:52.285Z,94479.78
2023-05-14T16:35:21.206Z,94480.69
2023-05-14T16:37:47.591Z,94475.63
2023-05-14T16:40:16.119Z,94482.03
2023-05-14T16:42:42.533Z,94485.88
2023-05-14T16:45:08.887Z,94486.91
2023-05-14T16:47:35.322Z,94490.13
2023-05-14T16:50:01.706Z,94495.53
2023-05-14T16:52:30.181Z,94496.91
2023-05-14T16:54:56.528Z,94500.03
2023-05-14T16:57:23.623Z,94498.50
2023-05-14T16:59:52.685Z,94493.84
2023-05-14T17:02:20.143Z,94502.28
2023-05-14T17:04:46.822Z,94504.97
2023-05-14T17:07:13.230Z,94509.69
2023-05-14T17:09:40.058Z,94519.59
2023-05-14T17:12:06.673Z,94507.31
2023-05-14T17:14:33.290Z,94519.06
2023-05-14T17:16:59.668Z,94513.16
2023-05-14T17:19:26.056Z,94513.09
2023-05-14T17:21:52.464Z,94526.59
2023-05-14T17:24:18.817Z,94519.94
2023-05-14T17:26:45.165Z,94527.97
2023-05-14T17:29:11.545Z,94526.53
2023-05-14T17:31:38.351Z,94532.03
2023-05-14T17:34:04.802Z,94528.53
2023-05-14T17:36:31.154Z,94528.28
2023-05-14T17:38:57.837Z,94536.88
2023-05-14T17:41:24.211Z,94534.63
2023-05-14T17:43:50.592Z,94525.38
2023-05-14T17:46:17.034Z,94525.38
2023-05-14T17:48:43.551Z,94527.03
2023-05-14T17:51:10.782Z,94525.16
2023-05-14T17:53:37.342Z,94536.31
2023-05-14T17:56:04.242Z,94540.63
2023-05-14T17:58:33.062Z,94542.50
2023-05-14T18:00:59.593Z,94542.28
2023-05-14T18:03:26.112Z,94552.31
2023-05-14T18:05:53.503Z,94554.13
2023-05-14T18:08:20.069Z,94559.09
2023-05-14T18:10:46.465Z,94565.25
2023-05-14T18:13:12.942Z,94572.16
2023-05-14T18:15:39.277Z,94570.44
2023-05-14T18:18:05.829Z,94580.75
2023-05-14T18:20:33.521Z,94580.91
2023-05-14T18:23:01.806Z,94584.03
2023-05-14T18:25:28.663Z,94587.84
2023-05-14T18:27:55.006Z,94598.66
2023-05-14T18:30:21.334Z,94601.88
2023-05-14T18:32:50.704Z,94598.97
2023-05-14T18:35:17.111Z,94603.53
2023-05-14T18:37:43.837Z,94594.44
2023-05-14T18:40:10.175Z,94600.84
2023-05-14T18:42:36.506Z,94603.19
2023-05-14T18:45:03.355Z,94606.94
2023-05-14T18:47:30.454Z,94612.34
2023-05-14T18:49:57.477Z,94611.16
2023-05-14T18:52:23.846Z,94609.75
2023-05-14T18:54:50.469Z,94616.75
2023-05-14T18:57:16.815Z,94617.97
2023-05-14T18:59:43.217Z,94626.91
2023-05-14T19:02:09.566Z,94619.91
2023-05-14T19:04:47.858Z,94620.94
2023-05-14T19:07:17.346Z,94626.44
2023-05-14T19:09:43.678Z,94628.94
2023-05-14T19:12:10.084Z,94623.16
2023-05-14T19:14:36.484Z,94625.44
2023-05-14T19:17:03.045Z,94623.41
2023-05-14T19:19:29.393Z,94625.44
2023-05-14T19:21:55.765Z,94621.59
2023-05-14T19:24:22.108Z,94621.16
2023-05-14T19:26:48.590Z,94626.06
2023-05-14T19:29:17.225Z,94624.66
2023-05-14T19:31:43.707Z,94627.13
2023-05-14T19:34:10.821Z,94624.09
2023-05-14T19:36:39.942Z,94626.34
2023-05-14T19:39:06.673Z,94625.13
2023-05-14T19:41:33.063Z,94623.72
2023-05-14T19:43:59.485Z,94618.84
2023-05-14T19:46:27.346Z,94616.00
2023-05-14T19:48:54.787Z,94614.75
2023-05-14T19:51:22.170Z,94609.66
2023-05-14T19:53:48.625Z,94609.03
2023-05-14T19:56:15.084Z,94620.44
2023-05-14T19:58:41.467Z,94623.47
2023-05-14T20:01:09.923Z,94623.69
2023-05-14T20:03:36.372Z,94623.31
2023-05-14T20:06:02.830Z,94620.66
2023-05-14T20:08:30.606Z,94624.88
2023-05-14T20:10:57.061Z,94637.75
2023-05-14T20:13:25.143Z,94630.44
2023-05-14T20:15:52.803Z,94644.56
2023-05-14T20:18:22.372Z,94630.94
2023-05-14T20:20:48.893Z,94628.72
2023-05-14T20:23:16.141Z,94624.09
2023-05-14T20:25:42.775Z,94627.78
2023-05-14T20:28:09.485Z,94628.53
2023-05-14T20:30:35.951Z,94621.53
2023-05-14T20:33:02.447Z,94616.69
2023-05-14T20:35:28.839Z,94621.22
2023-05-14T20:37:55.234Z,94616.56
2023-05-14T20:40:21.838Z,94611.50
2023-05-14T20:42:48.308Z,94614.56
2023-05-14T20:45:14.988Z,94618.47
2023-05-14T20:47:41.449Z,94605.47
2023-05-14T20:50:07.801Z,94601.44
2023-05-14T20:52:34.387Z,94605.31
2023-05-14T20:55:03.949Z,94596.34
2023-05-14T20:57:31.519Z,94595.97
2023-05-14T20:59:59.297Z,94600.66
2023-05-14T21:02:26.045Z,94608.34
2023-05-14T21:04:52.523Z,94607.94
2023-05-14T21:07:19.192Z,94610.91
2023-05-14T21:09:45.569Z,94600.94
2023-05-14T21:12:12.088Z,94609.56
2023-05-14T21:14:38.909Z,94617.75
2023-05-14T21:17:05.780Z,94612.88
